This is the latest recevied weather packets stored in our database for station/object IZ3VCM. If no packets are shown the sender has not sent any weather packets the latest 1 day(s).
| Time | Temp. | Humidity | Pressure | Rain* | Wind** | Luminosity | Snow |
|---|---|---|---|---|---|---|---|
| 1777991405 | 20° C | 75% | 1011.9 hPa | 0 mm | 0.45 m/s, 22° | - | - |
| 1777990504 | 21.11° C | 73% | 1012 hPa | 0 mm | 0 m/s | - | - |
| 1777989605 | 20° C | 75% | 1012.1 hPa | 0 mm | 0.45 m/s, 26° | - | - |
| 1777988703 | 20.56° C | 76% | 1012.4 hPa | 0 mm | 0.45 m/s, 111° | - | - |
| 1777987805 | 18.89° C | 77% | 1012.6 hPa | 0 mm | 0.45 m/s, 57° | - | - |
| 1777986903 | 18.89° C | 78% | 1012.5 hPa | 0 mm | 0 m/s | - | - |
| 1777986005 | 18.33° C | 79% | 1012.8 hPa | 0 mm | 1.34 m/s, 109° | - | - |
| 1777985103 | 17.78° C | 81% | 1012.9 hPa | 0 mm | 0.89 m/s, 86° | - | - |
| 1777984205 | 16.67° C | 83% | 1013 hPa | 0 mm | 0.45 m/s, 95° | - | - |
| 1777983303 | 16.67° C | 82% | 1013.1 hPa | 0 mm | 0.45 m/s, 83° | - | - |
| 1777982405 | 17.22° C | 82% | 1013.1 hPa | 0 mm | 0.89 m/s, 111° | - | - |
| 1777981503 | 17.22° C | 80% | 1013.2 hPa | 0 mm | 0.89 m/s, 112° | - | - |
| 1777980605 | 17.78° C | 81% | 1013.1 hPa | 0 mm | 1.34 m/s, 111° | - | - |
| 1777979703 | 17.78° C | 83% | 1013.1 hPa | 0 mm | 0.89 m/s, 107° | - | - |
| 1777978812 | 17.22° C | 83% | 1013.2 hPa | 0 mm | 1.34 m/s, 111° | - | - |
| 1777977902 | 17.22° C | 84% | 1013.4 hPa | 0.51 mm | 1.79 m/s, 99° | - | - |
| 1777977005 | 16.67° C | 86% | 1013.4 hPa | 0.51 mm | 1.34 m/s, 89° | - | - |
| 1777976103 | 15.56° C | 86% | 1013 hPa | 1.27 mm | 2.24 m/s, 90° | - | - |
| 1777975205 | 15.56° C | 86% | 1013.2 hPa | 1.27 mm | 0 m/s | - | - |
| 1777974303 | 15.56° C | 85% | 1013.3 hPa | 0.51 mm | 0 m/s | - | - |
| 1777973405 | 15.56° C | 84% | 1013.8 hPa | 0.51 mm | 0 m/s | - | - |
| 1777972503 | 15.56° C | 84% | 1013.9 hPa | 0.51 mm | 0 m/s | - | - |
| 1777971605 | 16.11° C | 84% | 1013.5 hPa | 1.27 mm | 0 m/s | - | - |
| 1777970702 | 16.11° C | 84% | 1013.5 hPa | 1.27 mm | 0 m/s | - | - |
| 1777969805 | 15.56° C | 83% | 1013.7 hPa | 1.27 mm | 0 m/s | - | - |
* Rain latest hour (hover to see other rain measurements)
** Current wind speed in m/s (hover to see current wind gust speed)